Hlavní strana
METAR-TAF:

METAR-TAF

Letiště :

Malmö, Švédsko

zeměpisná šířka: 55-33N, zeměpisná délka: 013-22E, výška: 106 m

Aktuální stav počasí

Zpráva byla vytvořena před 29 minutami, v 04:50 UTC
Jihozápadní vítr 4 kt
Teplota 0°C
Vlhkost vzduchu 100%
Tlak 1030 hPa
Viditelnost 10 km a více
chuchvalce mlhy

METAR: ESMS 050450Z 22004KT 9999 BCFG NSC 00/M00 Q1030

Čas: 07:19 (05:19 UTC)

Předpověď počasí

Zpráva byla vytvořena před 2 hodinami a 55 minutami, v 02:24 UTC
Předpověď platná od 05 v 02 UTC do 05 v 24 UTC
Jihojihozápadní vítr 6 kt
Viditelnost 10 km a více
Polojasno ve výšce 3000 ft
Dočasný
od 05 v 02 UTC do 05 v 06 UTC
Viditelnost: 1500 m
Oblačno až skoro zataženo ve výšce 200 ft
chuchvalce mlhy
Změna
od 05 v 11 UTC do 05 v 14 UTC
Jihovýchodní vítr 10 kt

TAF: ESMS 050224Z 0502/0524 20006KT 9999 SCT030 TEMPO 0502/0506 1500 BCFG BKN002 BECMG 0511/0514 14010KT

Stav a předpovědi počasí z více než 4 000 letišť (zprávy METAR a TAF).

Červené a žluté tečky na mapě představují dostupné meteorologické stanice.

Když kurzor umístíte na tečku, zobrazí se název stanice.

Pak kliknutím zobrazíte stav a předpověď počasí.

Chcete-li změnit mapu, kliknutím na zelené tlačítko se znaménkem +mapu přiblížíte, kliknutím na zelené tlačítko se znaménkem – mapu oddálíte a kliknutím na zelené šipky přejdete na sousední mapy.


METAR-TAF: